PWSweather.com
Personal Weather Stations
Station Observations
WATERF01
WaterfordIE

WaterfordIE

Lat: 52.2412507, Lon: -7.1414691

Elevation: 65

Station Type: Davis Vantage Vue

Latest ConditionsUpdated 7:20:01 PM GMT Tuesday, Jan 24, 2017
Currently Today's Max Today's Min Today's Average
Temperature 49.5°F9.7°C 49.7°F9.8°C 48.7°F9.3°C 49.2°F9.6°C
Dew Point 47.8°F8.8°C 48.0°F8.9°C 44.9°F7.2°C 47.0°F8.3°C
Winds 11.5 mph S18.5 kmh S 12.7 mph SW20.4 kmh SW - 8.2 mph 13.2 kmh
Wind Gusts 16.1 mph25.9 kmh 19.6 mph31.5 kmh - -
Humidity 94% 94% 85% 92%
Pressure 30.17 in1021.7 mb 30.20 in1022.7 mb 30.16 in1021.3 mb -
Precipitation - 0.06 in1.5 mm - -
Hour Temp Dew Point Humidity Winds Wind Gusts Pressure Precip Precip Rate Daily Precip Total
07:20 PM 49.5°F9.7°C 47.8°F8.8°C 94% 11.5 mph S18.5 kmh S 16.1 mph25.9 kmh 30.17 in1021.7 mb - 0.00 in0.0 mm 0.06 in1.5 mm
07:10 PM 49.5°F9.7°C 47.8°F8.8°C 94% 10.4 mph SSW16.7 kmh SSW 13.8 mph22.2 kmh 30.17 in1021.7 mb - 0.00 in0.0 mm 0.06 in1.5 mm
07:00 PM 49.5°F9.7°C 47.8°F8.8°C 94% 8.1 mph SW13.0 kmh SW 13.8 mph22.2 kmh 30.17 in1021.7 mb - 0.00 in0.0 mm 0.06 in1.5 mm
06:50 PM 49.5°F9.7°C 47.8°F8.8°C 94% 8.1 mph SSW13.0 kmh SSW 15.0 mph24.1 kmh 30.17 in1021.7 mb - 0.00 in0.0 mm 0.06 in1.5 mm
06:40 PM 49.5°F9.7°C 47.8°F8.8°C 94% 8.1 mph SW13.0 kmh SW 11.5 mph18.5 kmh 30.17 in1021.7 mb - 0.00 in0.0 mm 0.06 in1.5 mm
06:30 PM 49.5°F9.7°C 47.8°F8.8°C 94% 5.8 mph SW9.3 kmh SW 9.2 mph14.8 kmh 30.17 in1021.7 mb - 0.00 in0.0 mm 0.06 in1.5 mm
06:20 PM 49.5°F9.7°C 47.8°F8.8°C 94% 5.8 mph WSW9.3 kmh WSW 11.5 mph18.5 kmh 30.17 in1021.7 mb - 0.00 in0.0 mm 0.06 in1.5 mm
06:10 PM 49.5°F9.7°C 47.8°F8.8°C 94% 8.1 mph WSW13.0 kmh WSW 13.8 mph22.2 kmh 30.17 in1021.7 mb - 0.00 in0.0 mm 0.06 in1.5 mm
06:00 PM 49.5°F9.7°C 47.8°F8.8°C 94% 6.9 mph SW11.1 kmh SW 12.7 mph20.4 kmh 30.17 in1021.7 mb - 0.00 in0.0 mm 0.06 in1.5 mm
05:50 PM 49.5°F9.7°C 47.8°F8.8°C 94% 5.8 mph SW9.3 kmh SW 11.5 mph18.5 kmh 30.17 in1021.7 mb - 0.00 in0.0 mm 0.06 in1.5 mm
05:40 PM 49.5°F9.7°C 47.8°F8.8°C 94% 9.2 mph SW14.8 kmh SW 13.8 mph22.2 kmh 30.17 in1021.7 mb - 0.00 in0.0 mm 0.06 in1.5 mm
05:30 PM 49.5°F9.7°C 47.8°F8.8°C 94% 8.1 mph SW13.0 kmh SW 16.1 mph25.9 kmh 30.17 in1021.7 mb - 0.00 in0.0 mm 0.06 in1.5 mm
05:20 PM 49.6°F9.8°C 47.9°F8.8°C 94% 6.9 mph SW11.1 kmh SW 9.2 mph14.8 kmh 30.17 in1021.7 mb - 0.00 in0.0 mm 0.06 in1.5 mm
05:10 PM 49.6°F9.8°C 47.9°F8.8°C 94% 6.9 mph SW11.1 kmh SW 9.2 mph14.8 kmh 30.17 in1021.7 mb - 0.00 in0.0 mm 0.06 in1.5 mm
05:00 PM 49.6°F9.8°C 47.9°F8.8°C 94% 8.1 mph WSW13.0 kmh WSW 11.5 mph18.5 kmh 30.17 in1021.7 mb - 0.00 in0.0 mm 0.06 in1.5 mm
04:50 PM 49.6°F9.8°C 48.0°F8.9°C 94% 6.9 mph WSW11.1 kmh WSW 11.5 mph18.5 kmh 30.17 in1021.7 mb - 0.00 in0.0 mm 0.06 in1.5 mm
04:40 PM 49.7°F9.8°C 48.0°F8.9°C 94% 6.9 mph WSW11.1 kmh WSW 12.7 mph20.4 kmh 30.17 in1021.7 mb - 0.00 in0.0 mm 0.06 in1.5 mm
04:30 PM 49.7°F9.8°C 48.0°F8.9°C 94% 10.4 mph WSW16.7 kmh WSW 16.1 mph25.9 kmh 30.17 in1021.7 mb - 0.00 in0.0 mm 0.06 in1.5 mm
04:20 PM 49.7°F9.8°C 48.0°F8.9°C 94% 9.2 mph WSW14.8 kmh WSW 13.8 mph22.2 kmh 30.16 in1021.3 mb - 0.00 in0.0 mm 0.06 in1.5 mm
04:10 PM 49.7°F9.8°C 48.0°F8.9°C 94% 8.1 mph SSW13.0 kmh SSW 16.1 mph25.9 kmh 30.16 in1021.3 mb - 0.00 in0.0 mm 0.06 in1.5 mm
04:00 PM 49.6°F9.8°C 47.9°F8.8°C 94% 10.4 mph WNW16.7 kmh WNW 16.1 mph25.9 kmh 30.16 in1021.3 mb - 0.00 in0.0 mm 0.06 in1.5 mm
03:50 PM 49.6°F9.8°C 47.7°F8.7°C 93% 10.4 mph SW16.7 kmh SW 16.1 mph25.9 kmh 30.16 in1021.3 mb - 0.00 in0.0 mm 0.06 in1.5 mm
03:40 PM 49.5°F9.7°C 47.8°F8.8°C 94% 9.2 mph SW14.8 kmh SW 13.8 mph22.2 kmh 30.16 in1021.3 mb - 0.00 in0.0 mm 0.06 in1.5 mm
03:30 PM 49.5°F9.7°C 47.5°F8.6°C 93% 8.1 mph WSW13.0 kmh WSW 12.7 mph20.4 kmh 30.16 in1021.3 mb - 0.01 in0.3 mm 0.06 in1.5 mm
03:20 PM 49.5°F9.7°C 47.6°F8.7°C 93% 5.8 mph WNW9.3 kmh WNW 11.5 mph18.5 kmh 30.16 in1021.3 mb - 0.00 in0.0 mm 0.05 in1.3 mm
03:10 PM 49.5°F9.7°C 47.6°F8.7°C 93% 8.1 mph WSW13.0 kmh WSW 12.7 mph20.4 kmh 30.16 in1021.3 mb - 0.00 in0.0 mm 0.05 in1.3 mm
03:00 PM 49.4°F9.7°C 47.7°F8.7°C 94% 9.2 mph WSW14.8 kmh WSW 13.8 mph22.2 kmh 30.16 in1021.3 mb - 0.00 in0.0 mm 0.05 in1.3 mm
02:50 PM 49.4°F9.7°C 47.7°F8.7°C 94% 8.1 mph W13.0 kmh W 12.7 mph20.4 kmh 30.16 in1021.3 mb - 0.01 in0.3 mm 0.05 in1.3 mm
02:40 PM 49.3°F9.6°C 47.6°F8.7°C 94% 8.1 mph SW13.0 kmh SW 16.1 mph25.9 kmh 30.16 in1021.3 mb - 0.00 in0.0 mm 0.04 in1.0 mm
02:30 PM 49.3°F9.6°C 47.6°F8.7°C 94% 8.1 mph SW13.0 kmh SW 13.8 mph22.2 kmh 30.16 in1021.3 mb - 0.00 in0.0 mm 0.04 in1.0 mm
02:20 PM 49.3°F9.6°C 47.6°F8.7°C 94% 9.2 mph W14.8 kmh W 15.0 mph24.1 kmh 30.16 in1021.3 mb - 0.00 in0.0 mm 0.04 in1.0 mm
02:10 PM 49.3°F9.6°C 47.7°F8.7°C 94% 10.4 mph WNW16.7 kmh WNW 15.0 mph24.1 kmh 30.17 in1021.7 mb - 0.00 in0.0 mm 0.04 in1.0 mm
02:00 PM 49.3°F9.6°C 47.6°F8.7°C 94% 6.9 mph WSW11.1 kmh WSW 12.7 mph20.4 kmh 30.17 in1021.7 mb - 0.00 in0.0 mm 0.04 in1.0 mm
01:50 PM 49.3°F9.6°C 47.6°F8.7°C 94% 11.5 mph WSW18.5 kmh WSW 18.4 mph29.6 kmh 30.17 in1021.7 mb - 0.00 in0.0 mm 0.04 in1.0 mm
01:40 PM 49.4°F9.7°C 47.7°F8.7°C 94% 8.1 mph WNW13.0 kmh WNW 13.8 mph22.2 kmh 30.17 in1021.7 mb - 0.00 in0.0 mm 0.04 in1.0 mm
01:30 PM 49.5°F9.7°C 47.8°F8.8°C 94% 9.2 mph WNW14.8 kmh WNW 19.6 mph31.5 kmh 30.18 in1022.0 mb - 0.00 in0.0 mm 0.04 in1.0 mm
01:20 PM 49.5°F9.7°C 47.8°F8.8°C 94% 10.4 mph WNW16.7 kmh WNW 16.1 mph25.9 kmh 30.18 in1022.0 mb - 0.00 in0.0 mm 0.04 in1.0 mm
01:10 PM 49.4°F9.7°C 47.5°F8.6°C 93% 10.4 mph SW16.7 kmh SW 16.1 mph25.9 kmh 30.18 in1022.0 mb - 0.00 in0.0 mm 0.04 in1.0 mm
01:00 PM 49.4°F9.7°C 47.5°F8.6°C 93% 9.2 mph SW14.8 kmh SW 16.1 mph25.9 kmh 30.18 in1022.0 mb - 0.00 in0.0 mm 0.04 in1.0 mm
12:50 PM 49.3°F9.6°C 47.4°F8.6°C 93% 9.2 mph W14.8 kmh W 15.0 mph24.1 kmh 30.19 in1022.4 mb - 0.00 in0.0 mm 0.04 in1.0 mm
12:40 PM 49.2°F9.6°C 47.3°F8.5°C 93% 8.1 mph W13.0 kmh W 12.7 mph20.4 kmh 30.19 in1022.4 mb - 0.00 in0.0 mm 0.04 in1.0 mm
12:30 PM 49.2°F9.6°C 47.3°F8.5°C 93% 9.2 mph SW14.8 kmh SW 13.8 mph22.2 kmh 30.19 in1022.4 mb - 0.00 in0.0 mm 0.04 in1.0 mm
12:20 PM 49.1°F9.5°C 47.2°F8.4°C 93% 10.4 mph W16.7 kmh W 16.1 mph25.9 kmh 30.19 in1022.4 mb - 0.00 in0.0 mm 0.04 in1.0 mm
12:10 PM 49.1°F9.5°C 47.1°F8.4°C 93% 11.5 mph WSW18.5 kmh WSW 18.4 mph29.6 kmh 30.20 in1022.7 mb - 0.00 in0.0 mm 0.04 in1.0 mm
12:00 PM 49.1°F9.5°C 47.2°F8.4°C 93% 8.1 mph WNW13.0 kmh WNW 11.5 mph18.5 kmh 30.20 in1022.7 mb - 0.00 in0.0 mm 0.04 in1.0 mm
11:50 AM 49.1°F9.5°C 47.2°F8.4°C 93% 12.7 mph SW20.4 kmh SW 16.1 mph25.9 kmh 30.20 in1022.7 mb - 0.00 in0.0 mm 0.04 in1.0 mm
11:40 AM 49.0°F9.4°C 47.1°F8.4°C 93% 9.2 mph SW14.8 kmh SW 15.0 mph24.1 kmh 30.20 in1022.7 mb - 0.00 in0.0 mm 0.04 in1.0 mm
11:30 AM 48.9°F9.4°C 47.0°F8.3°C 93% 5.8 mph WNW9.3 kmh WNW 8.1 mph13.0 kmh 30.20 in1022.7 mb - 0.00 in0.0 mm 0.04 in1.0 mm
11:20 AM 49.0°F9.4°C 47.1°F8.4°C 93% 8.1 mph SW13.0 kmh SW 15.0 mph24.1 kmh 30.20 in1022.7 mb - 0.00 in0.0 mm 0.04 in1.0 mm
11:10 AM 49.0°F9.4°C 47.1°F8.4°C 93% 6.9 mph WSW11.1 kmh WSW 12.7 mph20.4 kmh 30.20 in1022.7 mb - 0.00 in0.0 mm 0.04 in1.0 mm
11:00 AM 48.9°F9.4°C 47.0°F8.3°C 93% 6.9 mph SW11.1 kmh SW 15.0 mph24.1 kmh 30.20 in1022.7 mb - 0.00 in0.0 mm 0.04 in1.0 mm
10:50 AM 48.8°F9.3°C 46.9°F8.3°C 93% 9.2 mph W14.8 kmh W 15.0 mph24.1 kmh 30.20 in1022.7 mb - 0.00 in0.0 mm 0.04 in1.0 mm
10:40 AM 48.9°F9.4°C 47.0°F8.3°C 93% 8.1 mph WSW13.0 kmh WSW 16.1 mph25.9 kmh 30.20 in1022.7 mb - 0.00 in0.0 mm 0.04 in1.0 mm
10:30 AM 49.0°F9.4°C 47.1°F8.4°C 93% 6.9 mph W11.1 kmh W 13.8 mph22.2 kmh 30.20 in1022.7 mb - 0.00 in0.0 mm 0.04 in1.0 mm
10:20 AM 49.1°F9.5°C 47.2°F8.4°C 93% 8.1 mph SW13.0 kmh SW 11.5 mph18.5 kmh 30.20 in1022.7 mb - 0.00 in0.0 mm 0.04 in1.0 mm
10:10 AM 49.1°F9.5°C 47.2°F8.4°C 93% 8.1 mph WSW13.0 kmh WSW 15.0 mph24.1 kmh 30.20 in1022.7 mb - 0.00 in0.0 mm 0.04 in1.0 mm
10:00 AM 49.2°F9.6°C 47.2°F8.4°C 93% 8.1 mph WSW13.0 kmh WSW 19.6 mph31.5 kmh 30.20 in1022.7 mb - 0.00 in0.0 mm 0.04 in1.0 mm
09:50 AM 49.1°F9.5°C 47.2°F8.4°C 93% 8.1 mph W13.0 kmh W 15.0 mph24.1 kmh 30.20 in1022.7 mb - 0.00 in0.0 mm 0.04 in1.0 mm
09:40 AM 49.1°F9.5°C 47.2°F8.4°C 93% 6.9 mph SE11.1 kmh SE 13.8 mph22.2 kmh 30.19 in1022.4 mb - 0.00 in0.0 mm 0.04 in1.0 mm
09:30 AM 49.1°F9.5°C 47.2°F8.4°C 93% 8.1 mph W13.0 kmh W 15.0 mph24.1 kmh 30.19 in1022.4 mb - 0.00 in0.0 mm 0.04 in1.0 mm
09:20 AM 49.1°F9.5°C 47.2°F8.4°C 93% 8.1 mph W13.0 kmh W 13.8 mph22.2 kmh 30.19 in1022.4 mb - 0.00 in0.0 mm 0.04 in1.0 mm
09:10 AM 49.0°F9.4°C 47.1°F8.4°C 93% 9.2 mph WNW14.8 kmh WNW 13.8 mph22.2 kmh 30.19 in1022.4 mb - 0.00 in0.0 mm 0.04 in1.0 mm
09:00 AM 49.0°F9.4°C 47.1°F8.4°C 93% 6.9 mph SW11.1 kmh SW 15.0 mph24.1 kmh 30.19 in1022.4 mb - 0.01 in0.3 mm 0.04 in1.0 mm
08:50 AM 49.0°F9.4°C 47.1°F8.4°C 93% 6.9 mph WSW11.1 kmh WSW 11.5 mph18.5 kmh 30.19 in1022.4 mb - 0.00 in0.0 mm 0.03 in0.8 mm
08:40 AM 48.9°F9.4°C 47.0°F8.3°C 93% 8.1 mph WSW13.0 kmh WSW 13.8 mph22.2 kmh 30.19 in1022.4 mb - 0.00 in0.0 mm 0.03 in0.8 mm
08:30 AM 48.9°F9.4°C 47.0°F8.3°C 93% 9.2 mph SW14.8 kmh SW 12.7 mph20.4 kmh 30.19 in1022.4 mb - 0.00 in0.0 mm 0.03 in0.8 mm
08:20 AM 48.9°F9.4°C 46.9°F8.3°C 93% 6.9 mph WSW11.1 kmh WSW 13.8 mph22.2 kmh 30.18 in1022.0 mb - 0.00 in0.0 mm 0.03 in0.8 mm
08:10 AM 48.8°F9.3°C 46.9°F8.3°C 93% 5.8 mph NW9.3 kmh NW 12.7 mph20.4 kmh 30.18 in1022.0 mb - 0.01 in0.3 mm 0.03 in0.8 mm
08:00 AM 48.8°F9.3°C 46.9°F8.3°C 93% 8.1 mph W13.0 kmh W 13.8 mph22.2 kmh 30.18 in1022.0 mb - 0.00 in0.0 mm 0.02 in0.5 mm
07:50 AM 48.8°F9.3°C 46.9°F8.3°C 93% 10.4 mph WSW16.7 kmh WSW 16.1 mph25.9 kmh 30.18 in1022.0 mb - 0.00 in0.0 mm 0.02 in0.5 mm
07:40 AM 48.8°F9.3°C 46.8°F8.2°C 93% 6.9 mph WSW11.1 kmh WSW 12.7 mph20.4 kmh 30.18 in1022.0 mb - 0.00 in0.0 mm 0.02 in0.5 mm
07:30 AM 48.7°F9.3°C 46.8°F8.2°C 93% 8.1 mph WSW13.0 kmh WSW 13.8 mph22.2 kmh 30.17 in1021.7 mb - 0.00 in0.0 mm 0.02 in0.5 mm
07:20 AM 48.7°F9.3°C 46.8°F8.2°C 93% 4.6 mph SW7.4 kmh SW 6.9 mph11.1 kmh 30.17 in1021.7 mb - 0.00 in0.0 mm 0.02 in0.5 mm
07:10 AM 48.7°F9.3°C 46.8°F8.2°C 93% 8.1 mph W13.0 kmh W 12.7 mph20.4 kmh 30.17 in1021.7 mb - 0.01 in0.3 mm 0.02 in0.5 mm
07:00 AM 48.9°F9.4°C 47.0°F8.3°C 93% 8.1 mph W13.0 kmh W 13.8 mph22.2 kmh 30.17 in1021.7 mb - 0.00 in0.0 mm 0.01 in0.3 mm
06:50 AM 48.9°F9.4°C 47.0°F8.3°C 93% 9.2 mph WNW14.8 kmh WNW 15.0 mph24.1 kmh 30.17 in1021.7 mb - 0.00 in0.0 mm 0.01 in0.3 mm
06:40 AM 49.0°F9.4°C 47.1°F8.4°C 93% 9.2 mph SSW14.8 kmh SSW 13.8 mph22.2 kmh 30.17 in1021.7 mb - 0.00 in0.0 mm 0.01 in0.3 mm
06:30 AM 49.0°F9.4°C 47.0°F8.3°C 93% 8.1 mph W13.0 kmh W 12.7 mph20.4 kmh 30.17 in1021.7 mb - 0.00 in0.0 mm 0.01 in0.3 mm
06:20 AM 48.9°F9.4°C 47.0°F8.3°C 93% 8.1 mph W13.0 kmh W 12.7 mph20.4 kmh 30.16 in1021.3 mb - 0.00 in0.0 mm 0.01 in0.3 mm
06:10 AM 49.0°F9.4°C 47.1°F8.4°C 93% 6.9 mph WSW11.1 kmh WSW 12.7 mph20.4 kmh 30.16 in1021.3 mb - 0.01 in0.3 mm 0.01 in0.3 mm
06:00 AM 48.9°F9.4°C 47.0°F8.3°C 93% 6.9 mph W11.1 kmh W 9.2 mph14.8 kmh 30.16 in1021.3 mb - 0.00 in0.0 mm 0.00 in0.0 mm
05:50 AM 48.9°F9.4°C 47.0°F8.3°C 93% 9.2 mph WSW14.8 kmh WSW 16.1 mph25.9 kmh 30.16 in1021.3 mb - 0.00 in0.0 mm 0.00 in0.0 mm
05:40 AM 48.9°F9.4°C 47.0°F8.3°C 93% 9.2 mph WSW14.8 kmh WSW 13.8 mph22.2 kmh 30.16 in1021.3 mb - 0.00 in0.0 mm 0.00 in0.0 mm
05:30 AM 48.9°F9.4°C 47.0°F8.3°C 93% 10.4 mph WSW16.7 kmh WSW 18.4 mph29.6 kmh 30.16 in1021.3 mb - 0.00 in0.0 mm 0.00 in0.0 mm
05:20 AM 48.8°F9.3°C 46.9°F8.3°C 93% 8.1 mph SW13.0 kmh SW 15.0 mph24.1 kmh 30.16 in1021.3 mb - 0.00 in0.0 mm 0.00 in0.0 mm
05:10 AM 48.8°F9.3°C 46.9°F8.3°C 93% 8.1 mph WSW13.0 kmh WSW 16.1 mph25.9 kmh 30.16 in1021.3 mb - 0.00 in0.0 mm 0.00 in0.0 mm
05:00 AM 48.8°F9.3°C 46.9°F8.3°C 93% 9.2 mph N14.8 kmh N 13.8 mph22.2 kmh 30.17 in1021.7 mb - 0.00 in0.0 mm 0.00 in0.0 mm
04:50 AM 48.8°F9.3°C 46.9°F8.3°C 93% 9.2 mph WNW14.8 kmh WNW 13.8 mph22.2 kmh 30.17 in1021.7 mb - 0.00 in0.0 mm 0.00 in0.0 mm
04:40 AM 48.8°F9.3°C 46.9°F8.3°C 93% 9.2 mph W14.8 kmh W 15.0 mph24.1 kmh 30.17 in1021.7 mb - 0.00 in0.0 mm 0.00 in0.0 mm
04:30 AM 48.7°F9.3°C 46.8°F8.2°C 93% 9.2 mph WSW14.8 kmh WSW 18.4 mph29.6 kmh 30.17 in1021.7 mb - 0.00 in0.0 mm 0.00 in0.0 mm
04:20 AM 48.7°F9.3°C 46.5°F8.1°C 92% 6.9 mph WSW11.1 kmh WSW 13.8 mph22.2 kmh 30.17 in1021.7 mb - 0.00 in0.0 mm 0.00 in0.0 mm
04:10 AM 48.7°F9.3°C 46.5°F8.1°C 92% 10.4 mph SW16.7 kmh SW 15.0 mph24.1 kmh 30.17 in1021.7 mb - 0.00 in0.0 mm 0.00 in0.0 mm
04:00 AM 48.7°F9.3°C 46.5°F8.1°C 92% 9.2 mph WSW14.8 kmh WSW 18.4 mph29.6 kmh 30.17 in1021.7 mb - 0.00 in0.0 mm 0.00 in0.0 mm
03:50 AM 48.8°F9.3°C 46.6°F8.1°C 92% 8.1 mph WSW13.0 kmh WSW 13.8 mph22.2 kmh 30.18 in1022.0 mb - 0.00 in0.0 mm 0.00 in0.0 mm
03:40 AM 48.8°F9.3°C 46.3°F7.9°C 91% 10.4 mph SW16.7 kmh SW 16.1 mph25.9 kmh 30.18 in1022.0 mb - 0.00 in0.0 mm 0.00 in0.0 mm
03:30 AM 49.1°F9.5°C 46.3°F7.9°C 90% 5.8 mph NW9.3 kmh NW 16.1 mph25.9 kmh 30.18 in1022.0 mb - 0.00 in0.0 mm 0.00 in0.0 mm
03:20 AM 49.3°F9.6°C 45.9°F7.7°C 88% 5.8 mph SW9.3 kmh SW 11.5 mph18.5 kmh 30.18 in1022.0 mb - 0.00 in0.0 mm 0.00 in0.0 mm
03:10 AM 49.5°F9.7°C 45.8°F7.7°C 87% 5.8 mph SW9.3 kmh SW 11.5 mph18.5 kmh 30.18 in1022.0 mb - 0.00 in0.0 mm 0.00 in0.0 mm
03:00 AM 49.5°F9.7°C 45.5°F7.5°C 86% 6.9 mph SW11.1 kmh SW 12.7 mph20.4 kmh 30.18 in1022.0 mb - 0.00 in0.0 mm 0.00 in0.0 mm
02:50 AM 49.5°F9.7°C 45.5°F7.5°C 86% 6.9 mph SW11.1 kmh SW 13.8 mph22.2 kmh 30.18 in1022.0 mb - 0.00 in0.0 mm 0.00 in0.0 mm
02:40 AM 49.5°F9.7°C 45.2°F7.3°C 85% 5.8 mph SW9.3 kmh SW 11.5 mph18.5 kmh 30.18 in1022.0 mb - 0.00 in0.0 mm 0.00 in0.0 mm
02:30 AM 49.5°F9.7°C 45.2°F7.3°C 85% 6.9 mph WSW11.1 kmh WSW 12.7 mph20.4 kmh 30.18 in1022.0 mb - 0.00 in0.0 mm 0.00 in0.0 mm
02:20 AM 49.5°F9.7°C 45.2°F7.3°C 85% 8.1 mph SW13.0 kmh SW 11.5 mph18.5 kmh 30.18 in1022.0 mb - 0.00 in0.0 mm 0.00 in0.0 mm
02:10 AM 49.5°F9.7°C 45.5°F7.5°C 86% 8.1 mph SW13.0 kmh SW 13.8 mph22.2 kmh 30.18 in1022.0 mb - 0.00 in0.0 mm 0.00 in0.0 mm
02:00 AM 49.5°F9.7°C 45.5°F7.5°C 86% 6.9 mph W11.1 kmh W 15.0 mph24.1 kmh 30.18 in1022.0 mb - 0.00 in0.0 mm 0.00 in0.0 mm
01:50 AM 49.4°F9.7°C 45.4°F7.4°C 86% 8.1 mph SW13.0 kmh SW 16.1 mph25.9 kmh 30.18 in1022.0 mb - 0.00 in0.0 mm 0.00 in0.0 mm
01:40 AM 49.5°F9.7°C 45.4°F7.4°C 86% 11.5 mph WSW18.5 kmh WSW 16.1 mph25.9 kmh 30.17 in1021.7 mb - 0.00 in0.0 mm 0.00 in0.0 mm
01:30 AM 49.4°F9.7°C 45.4°F7.4°C 86% 10.4 mph W16.7 kmh W 18.4 mph29.6 kmh 30.18 in1022.0 mb - 0.00 in0.0 mm 0.00 in0.0 mm
01:20 AM 49.3°F9.6°C 45.6°F7.6°C 87% 8.1 mph SW13.0 kmh SW 13.8 mph22.2 kmh 30.18 in1022.0 mb - 0.00 in0.0 mm 0.00 in0.0 mm
01:10 AM 49.3°F9.6°C 45.6°F7.6°C 87% 8.1 mph WSW13.0 kmh WSW 13.8 mph22.2 kmh 30.18 in1022.0 mb - 0.00 in0.0 mm 0.00 in0.0 mm
01:00 AM 49.3°F9.6°C 45.6°F7.6°C 87% 6.9 mph SW11.1 kmh SW 11.5 mph18.5 kmh 30.19 in1022.4 mb - 0.00 in0.0 mm 0.00 in0.0 mm
12:50 AM 49.2°F9.6°C 45.5°F7.5°C 87% 5.8 mph WSW9.3 kmh WSW 11.5 mph18.5 kmh 30.19 in1022.4 mb - 0.00 in0.0 mm 0.00 in0.0 mm
12:40 AM 49.1°F9.5°C 45.3°F7.4°C 87% 5.8 mph SW9.3 kmh SW 11.5 mph18.5 kmh 30.19 in1022.4 mb - 0.00 in0.0 mm 0.00 in0.0 mm
12:30 AM 49.0°F9.4°C 45.0°F7.2°C 86% 8.1 mph S13.0 kmh S 11.5 mph18.5 kmh 30.19 in1022.4 mb - 0.00 in0.0 mm 0.00 in0.0 mm
12:20 AM 48.9°F9.4°C 44.9°F7.2°C 86% 8.1 mph SSW13.0 kmh SSW 12.7 mph20.4 kmh 30.19 in1022.4 mb - 0.00 in0.0 mm 0.00 in0.0 mm
12:10 AM 49.0°F9.4°C 45.0°F7.2°C 86% 8.1 mph SW13.0 kmh SW 11.5 mph18.5 kmh 30.20 in1022.7 mb - 0.00 in0.0 mm 0.00 in0.0 mm
12:00 AM 48.9°F9.4°C 44.9°F7.2°C 86% 6.9 mph SSW11.1 kmh SSW 11.5 mph18.5 kmh 30.20 in1022.7 mb - 0.00 in0.0 mm 0.00 in0.0 mm